Time;durP1;ratioP1;P1;durP2;ratioP2;P2;SDS_P1;SDS_P2;PMS_P1;PMS_P2;Temp;Humidity;BMP_temperature;BMP_pressure;BME280_temperature;BME280_humidity;BME280_pressure;Samples;Min_cycle;Max_cycle;Signal;HPM_P1;HPM_P2
2022/03/01 00:00:06;;;;;;;4.35;3.17;;;;;;;1.52;48.11;94453.75;5025197;28;20159;-75
2022/03/01 00:02:32;;;;;;;3.80;3.17;;;;;;;1.34;48.05;94433.06;5022952;28;21985;-76
2022/03/01 00:04:57;;;;;;;3.90;3.45;;;;;;;1.46;48.04;94451.31;5024582;28;20495;-76
2022/03/01 00:07:22;;;;;;;3.17;2.58;;;;;;;1.49;47.65;94437.72;5012648;28;20029;-76
2022/03/01 00:09:48;;;;;;;3.13;2.78;;;;;;;1.37;47.58;94424.72;5036221;28;20250;-75
2022/03/01 00:12:14;;;;;;;3.83;2.60;;;;;;;1.51;47.82;94444.31;5022608;28;20040;-74
2022/03/01 00:14:44;;;;;;;4.45;3.40;;;;;;;1.54;47.58;94435.97;5018448;28;20029;-72
2022/03/01 00:17:09;;;;;;;4.97;3.38;;;;;;;1.50;47.59;94440.13;5019246;28;20022;-76
2022/03/01 00:19:34;;;;;;;5.93;3.05;;;;;;;1.47;47.67;94435.34;5028706;28;20209;-75
2022/03/01 00:22:00;;;;;;;4.53;3.70;;;;;;;1.50;47.58;94442.72;5024345;28;20526;-75
2022/03/01 00:24:25;;;;;;;5.63;2.70;;;;;;;1.40;47.69;94434.72;5011699;28;20118;-75
2022/03/01 00:26:51;;;;;;;3.90;2.95;;;;;;;1.36;47.82;94425.75;5028477;28;20033;-76
2022/03/01 00:29:17;;;;;;;4.30;2.63;;;;;;;1.21;47.74;94404.56;5019882;28;20064;-76
2022/03/01 00:31:42;;;;;;;6.35;3.10;;;;;;;1.22;47.66;94411.41;5034186;28;21734;-74
2022/03/01 00:34:08;;;;;;;4.15;3.03;;;;;;;1.06;47.82;94412.22;5031401;28;20028;-75
2022/03/01 00:36:36;;;;;;;5.18;3.58;;;;;;;1.20;47.71;94413.47;5024688;28;20548;-76
2022/03/01 00:39:06;;;;;;;5.00;2.75;;;;;;;1.30;47.64;94408.38;5027829;28;20036;-77
2022/03/01 00:41:32;;;;;;;5.03;3.15;;;;;;;1.04;47.67;94380.19;5030888;28;20037;-76
2022/03/01 00:43:58;;;;;;;4.28;3.50;;;;;;;1.25;47.55;94408.28;5023576;28;20029;-75
2022/03/01 00:46:26;;;;;;;4.55;3.25;;;;;;;1.03;47.71;94391.75;5022946;28;20030;-76
2022/03/01 00:48:55;;;;;;;4.05;3.25;;;;;;;1.10;47.58;94392.34;5024748;28;20049;-76
2022/03/01 00:51:21;;;;;;;4.40;3.15;;;;;;;1.19;47.63;94389.09;5031051;28;20037;-75
2022/03/01 00:53:46;;;;;;;5.05;3.17;;;;;;;0.85;47.35;94336.97;5026542;28;20037;-76
2022/03/01 00:56:12;;;;;;;2.88;2.28;;;;;;;1.21;47.38;94400.13;5026257;28;20466;-74
2022/03/01 00:58:37;;;;;;;3.35;2.70;;;;;;;1.05;47.34;94374.75;5026446;28;20397;-76
2022/03/01 01:01:03;;;;;;;2.78;2.45;;;;;;;1.20;46.99;94397.75;5024181;28;20029;-76
2022/03/01 01:03:28;;;;;;;2.78;2.55;;;;;;;0.93;47.18;94358.34;5030139;28;20040;-76
2022/03/01 01:05:54;;;;;;;3.08;2.72;;;;;;;0.76;47.45;94334.75;5021954;28;20129;-76
2022/03/01 01:08:19;;;;;;;3.58;2.70;;;;;;;1.04;47.07;94377.59;5029354;28;20028;-75
2022/03/01 01:10:45;;;;;;;3.03;2.60;;;;;;;1.08;47.15;94389.19;5028605;28;20032;-76
2022/03/01 01:13:13;;;;;;;5.63;2.60;;;;;;;0.95;47.23;94371.16;5022571;28;20730;-75
2022/03/01 01:15:38;;;;;;;5.10;2.78;;;;;;;1.04;47.14;94398.53;5015715;28;20029;-72
2022/03/01 01:18:04;;;;;;;2.60;2.40;;;;;;;1.10;47.14;94392.34;5026405;28;20048;-75
2022/03/01 01:20:29;;;;;;;2.78;2.38;;;;;;;0.98;47.20;94394.28;5024561;28;20128;-75
2022/03/01 01:22:54;;;;;;;4.10;2.33;;;;;;;0.94;47.59;94398.38;5024293;28;20441;-75
2022/03/01 01:25:22;;;;;;;3.20;2.83;;;;;;;0.84;47.50;94396.41;5024253;28;20061;-76
2022/03/01 01:27:52;;;;;;;4.00;2.20;;;;;;;0.93;47.07;94389.75;5028843;28;20040;-76
2022/03/01 01:30:22;;;;;;;3.95;2.97;;;;;;;0.97;46.81;94388.25;5036296;28;20035;-75
2022/03/01 01:32:48;;;;;;;5.60;3.38;;;;;;;0.69;47.42;94364.78;5023383;28;20330;-75
2022/03/01 01:35:17;;;;;;;3.28;2.50;;;;;;;0.77;47.46;94380.88;5024122;28;20582;-72
2022/03/01 01:37:43;;;;;;;3.03;2.53;;;;;;;0.88;47.10;94379.22;5026753;28;20028;-74
2022/03/01 01:40:13;;;;;;;4.22;3.03;;;;;;;0.92;47.02;94374.28;5026245;28;20415;-75
2022/03/01 01:42:39;;;;;;;5.55;2.35;;;;;;;0.88;47.12;94379.22;5020463;28;20446;-75
2022/03/01 01:45:05;;;;;;;3.10;2.03;;;;;;;0.91;47.23;94375.31;5019625;28;20060;-77
2022/03/01 01:47:31;;;;;;;2.53;2.05;;;;;;;0.93;46.88;94370.63;5022227;28;20563;-76
2022/03/01 01:49:56;;;;;;;3.13;2.25;;;;;;;0.71;47.24;94353.00;5015774;28;20421;-76
2022/03/01 01:52:27;;;;;;;4.57;2.70;;;;;;;0.79;47.02;94359.66;5028061;28;20033;-72
2022/03/01 01:54:53;;;;;;;2.47;2.05;;;;;;;0.43;47.09;94313.03;5028005;28;20953;-75
2022/03/01 01:57:21;;;;;;;2.70;2.25;;;;;;;0.83;46.89;94367.84;5039557;28;21496;-75
2022/03/01 01:59:48;;;;;;;4.13;2.10;;;;;;;0.85;46.82;94368.41;5017017;28;20152;-75
2022/03/01 02:02:16;;;;;;;2.08;1.98;;;;;;;0.84;46.85;94361.59;5017574;28;20348;-75
2022/03/01 02:04:41;;;;;;;2.60;2.40;;;;;;;0.72;46.81;94336.28;5022703;28;20040;-76
2022/03/01 02:07:14;;;;;;;2.10;1.80;;;;;;;0.80;46.80;94353.41;5024585;28;20500;-73
2022/03/01 02:09:39;;;;;;;2.78;2.10;;;;;;;0.87;46.56;94355.88;5037554;28;20063;-72
2022/03/01 02:12:05;;;;;;;2.03;1.88;;;;;;;0.75;46.30;94335.78;5033774;28;20508;-75
2022/03/01 02:14:32;;;;;;;2.22;1.67;;;;;;;0.70;46.61;94348.00;5021598;28;20057;-74
2022/03/01 02:17:06;;;;;;;2.35;2.13;;;;;;;0.78;46.39;94347.63;5020222;28;20021;-74
2022/03/01 02:19:32;;;;;;;5.22;2.05;;;;;;;0.67;46.76;94336.19;5029028;28;20056;-76
2022/03/01 02:21:58;;;;;;;2.17;1.98;;;;;;;0.71;46.69;94337.31;5027528;28;20500;-76
2022/03/01 02:24:30;;;;;;;1.65;1.55;;;;;;;0.60;46.38;94312.00;5038811;28;20420;-75
2022/03/01 02:27:00;;;;;;;2.20;1.98;;;;;;;0.74;46.22;94328.97;5032770;28;20052;-76
2022/03/01 02:29:27;;;;;;;3.22;2.30;;;;;;;0.76;46.20;94326.91;5022409;28;20545;-75
2022/03/01 02:31:55;;;;;;;2.10;1.90;;;;;;;0.74;46.15;94334.19;5026245;28;20040;-76
2022/03/01 02:34:21;;;;;;;2.10;1.92;;;;;;;0.72;46.16;94331.03;5025965;28;20025;-76
2022/03/01 02:36:48;;;;;;;2.20;1.98;;;;;;;0.49;46.24;94309.47;5023711;28;20052;-75
2022/03/01 02:39:14;;;;;;;2.30;2.10;;;;;;;0.72;46.44;94328.44;5026212;28;20029;-75
2022/03/01 02:41:41;;;;;;;3.47;2.80;;;;;;;0.60;46.40;94321.66;5026967;28;20041;-75
2022/03/01 02:44:08;;;;;;;2.45;2.08;;;;;;;0.65;46.50;94327.78;5024840;28;20029;-75
2022/03/01 02:46:34;;;;;;;2.97;2.17;;;;;;;0.55;46.45;94314.53;5027155;28;20036;-76
2022/03/01 02:49:00;;;;;;;2.55;2.00;;;;;;;0.73;46.67;94340.50;5026594;28;20052;-76
2022/03/01 02:51:26;;;;;;;1.60;1.50;;;;;;;0.66;46.46;94324.13;5025228;28;20128;-77
2022/03/01 02:53:52;;;;;;;2.55;1.80;;;;;;;0.71;46.85;94326.84;5029715;28;20043;-76
2022/03/01 02:56:17;;;;;;;1.98;1.73;;;;;;;0.65;46.70;94312.06;5037745;28;20434;-74
2022/03/01 02:58:43;;;;;;;2.10;1.90;;;;;;;0.72;46.80;94333.66;5023980;28;20076;-75
2022/03/01 03:01:09;;;;;;;4.30;2.92;;;;;;;0.75;46.47;94327.94;5026749;28;20084;-77
2022/03/01 03:03:34;;;;;;;3.80;2.30;;;;;;;0.75;46.87;94327.94;5019923;28;20531;-75
2022/03/01 03:06:01;;;;;;;3.47;2.38;;;;;;;0.72;46.58;94338.91;5027734;28;20155;-73
2022/03/01 03:08:27;;;;;;;2.58;1.98;;;;;;;0.77;46.62;94333.75;5023600;28;20351;-76
2022/03/01 03:10:52;;;;;;;4.30;2.25;;;;;;;0.81;46.58;94341.91;5023050;28;20035;-74
2022/03/01 03:13:19;;;;;;;3.03;2.15;;;;;;;0.63;46.78;94306.31;5021060;28;20565;-75
2022/03/01 03:15:45;;;;;;;2.70;1.98;;;;;;;0.87;46.52;94340.16;5025184;28;20120;-76
2022/03/01 03:18:11;;;;;;;3.95;2.90;;;;;;;0.74;46.91;94347.28;5014301;28;20040;-75
2022/03/01 03:20:36;;;;;;;4.03;2.28;;;;;;;0.71;47.04;94334.69;5023206;28;20519;-75
2022/03/01 03:23:02;;;;;;;2.92;2.58;;;;;;;0.72;46.75;94323.19;5029558;28;20077;-75
2022/03/01 03:25:27;;;;;;;4.03;2.95;;;;;;;0.63;47.07;94316.78;5027502;28;20133;-76
2022/03/01 03:27:53;;;;;;;4.78;2.65;;;;;;;-0.31;47.11;94192.84;5023690;28;20033;-75
2022/03/01 03:30:18;;;;;;;4.47;2.47;;;;;;;0.77;47.23;94343.41;5020494;28;20040;-76
2022/03/01 03:32:43;;;;;;;2.88;2.40;;;;;;;0.73;47.10;94334.47;5022503;28;20060;-75
2022/03/01 03:35:09;;;;;;;2.90;2.05;;;;;;;0.64;47.24;94328.03;5022211;28;20325;-76
2022/03/01 03:37:34;;;;;;;3.40;2.60;;;;;;;0.58;47.18;94314.06;5023500;28;20033;-76
2022/03/01 03:40:00;;;;;;;3.40;2.40;;;;;;;0.78;47.05;94343.19;5027588;28;20120;-73
2022/03/01 03:42:26;;;;;;;2.20;1.98;;;;;;;0.70;46.77;94346.19;5020024;28;21149;-75
2022/03/01 03:44:51;;;;;;;3.42;2.10;;;;;;;0.77;46.63;94341.59;5022464;28;20033;-74
2022/03/01 03:47:17;;;;;;;4.30;2.20;;;;;;;0.70;46.47;94309.53;5020052;28;20850;-76
2022/03/01 03:49:43;;;;;;;3.95;2.40;;;;;;;0.88;46.07;94345.16;5023782;28;20414;-72
2022/03/01 03:52:09;;;;;;;3.83;2.22;;;;;;;0.74;46.65;94349.91;5029001;28;20044;-77
2022/03/01 03:54:35;;;;;;;3.53;2.60;;;;;;;0.71;47.15;94346.97;5019501;28;20041;-76
2022/03/01 03:57:07;;;;;;;2.90;2.50;;;;;;;0.68;47.36;94343.03;5024361;28;20124;-75
2022/03/01 03:59:34;;;;;;;4.30;2.63;;;;;;;0.62;47.24;94315.19;5014168;28;20061;-76
2022/03/01 04:02:00;;;;;;;4.28;2.75;;;;;;;0.65;47.06;94322.53;5031983;28;20031;-75
2022/03/01 04:04:25;;;;;;;5.28;2.90;;;;;;;0.64;47.06;94315.72;5016024;28;20044;-77
2022/03/01 04:06:51;;;;;;;6.38;2.88;;;;;;;0.69;47.06;94344.59;5028154;28;20040;-73
2022/03/01 04:09:16;;;;;;;2.88;2.03;;;;;;;0.66;46.88;94332.00;5021337;28;20402;-76
2022/03/01 04:11:41;;;;;;;2.30;2.10;;;;;;;0.59;47.43;94334.00;5017286;28;20037;-75
2022/03/01 04:14:07;;;;;;;3.47;2.35;;;;;;;0.65;46.96;94343.50;5020756;28;20029;-75
2022/03/01 04:16:32;;;;;;;5.07;1.65;;;;;;;0.58;46.68;94321.94;5019562;28;20021;-75
2022/03/01 04:18:58;;;;;;;3.78;2.30;;;;;;;0.61;46.82;94342.38;5023309;28;20044;-76
2022/03/01 04:21:30;;;;;;;2.05;1.90;;;;;;;0.65;47.06;94342.69;5022155;28;20064;-73
2022/03/01 04:23:56;;;;;;;2.35;2.15;;;;;;;0.54;46.89;94305.13;5016866;28;20041;-76
2022/03/01 04:26:23;;;;;;;2.42;2.10;;;;;;;0.60;46.90;94330.31;5023894;28;20107;-77
2022/03/01 04:28:48;;;;;;;1.80;1.70;;;;;;;0.70;46.82;94329.69;5023553;28;20025;-76
2022/03/01 04:31:14;;;;;;;2.67;2.00;;;;;;;0.39;47.08;94307.50;5023755;28;20499;-76
2022/03/01 04:33:39;;;;;;;2.00;1.90;;;;;;;0.52;47.17;94315.03;5013754;28;20658;-74
2022/03/01 04:36:06;;;;;;;2.42;1.80;;;;;;;0.23;47.36;94318.72;5017295;28;20061;-76
2022/03/01 04:38:32;;;;;;;4.80;2.45;;;;;;;0.42;47.46;94333.19;5018527;28;20768;-73
2022/03/01 04:40:58;;;;;;;3.38;2.33;;;;;;;0.40;47.29;94324.00;5025774;28;20104;-76
2022/03/01 04:43:24;;;;;;;4.55;2.72;;;;;;;0.26;47.45;94344.41;5026716;28;20510;-74
2022/03/01 04:45:49;;;;;;;3.45;2.03;;;;;;;0.39;47.21;94336.28;5021187;28;20626;-74
2022/03/01 04:48:15;;;;;;;4.53;2.85;;;;;;;0.36;47.45;94327.06;5025955;28;20053;-76
2022/03/01 04:50:42;;;;;;;3.35;2.85;;;;;;;0.48;46.85;94342.72;5020137;28;20041;-74
2022/03/01 04:53:07;;;;;;;4.03;2.90;;;;;;;0.43;46.86;94324.31;5029774;28;20039;-76
2022/03/01 04:55:34;;;;;;;5.07;2.85;;;;;;;0.27;47.43;94317.22;5026978;28;20025;-75
2022/03/01 04:58:00;;;;;;;5.72;3.28;;;;;;;0.48;47.29;94352.38;5024280;28;20046;-76
2022/03/01 05:00:26;;;;;;;2.47;2.28;;;;;;;0.44;47.28;94346.84;5025112;28;20040;-76
2022/03/01 05:02:52;;;;;;;5.15;3.35;;;;;;;0.40;47.08;94324.00;5015041;28;20045;-76
2022/03/01 05:05:17;;;;;;;3.10;2.35;;;;;;;0.56;46.73;94350.16;5028131;28;20029;-76
2022/03/01 05:07:50;;;;;;;3.45;2.53;;;;;;;0.41;46.79;94346.50;5027351;28;20469;-73
2022/03/01 05:10:20;;;;;;;2.90;1.90;;;;;;;0.34;47.00;94330.97;5029480;28;20321;-75
2022/03/01 05:12:53;;;;;;;2.05;1.85;;;;;;;0.47;46.87;94350.78;5026228;28;20075;-76
2022/03/01 05:15:20;;;;;;;3.08;2.35;;;;;;;0.23;47.58;94339.66;5018550;28;20543;-76
2022/03/01 05:17:47;;;;;;;4.43;2.47;;;;;;;0.44;47.21;94359.91;5022200;28;20073;-75
2022/03/01 05:20:14;;;;;;;4.63;2.63;;;;;;;0.41;47.16;94357.75;5017630;28;20029;-76
2022/03/01 05:22:40;;;;;;;3.92;2.15;;;;;;;0.39;47.33;94349.38;5029665;28;20017;-73
2022/03/01 05:25:10;;;;;;;11.35;5.05;;;;;;;0.26;47.27;94328.72;5028917;28;20087;-75
2022/03/01 05:27:41;;;;;;;10.90;5.97;;;;;;;0.49;47.07;94359.19;5024616;28;20041;-75
2022/03/01 05:30:09;;;;;;;10.32;5.20;;;;;;;0.39;47.19;94354.59;5020810;28;20519;-76
2022/03/01 05:32:35;;;;;;;10.27;5.32;;;;;;;0.29;47.25;94325.66;5023054;28;20045;-75
2022/03/01 05:35:04;;;;;;;8.30;3.58;;;;;;;0.29;47.27;94350.00;5026459;28;20051;-73
2022/03/01 05:37:30;;;;;;;5.13;3.22;;;;;;;0.41;47.39;94370.84;5021169;28;20195;-76
2022/03/01 05:39:55;;;;;;;5.53;2.67;;;;;;;0.50;47.31;94358.94;5030246;28;20037;-73
2022/03/01 05:42:21;;;;;;;3.03;2.58;;;;;;;0.13;47.31;94324.59;5022881;28;20029;-75
2022/03/01 05:44:46;;;;;;;3.92;2.83;;;;;;;0.44;47.32;94361.72;5021854;28;20526;-76
2022/03/01 05:47:12;;;;;;;4.53;2.95;;;;;;;0.54;47.07;94365.31;5026312;28;20080;-73
2022/03/01 05:49:37;;;;;;;5.28;2.45;;;;;;;0.48;47.58;94363.66;5025885;28;20025;-75
2022/03/01 05:52:03;;;;;;;2.88;2.58;;;;;;;0.24;48.15;94362.19;5026010;28;20095;-75
2022/03/01 05:54:29;;;;;;;4.10;2.65;;;;;;;0.48;47.40;94381.16;5025774;28;20044;-76
2022/03/01 05:56:55;;;;;;;4.38;2.58;;;;;;;0.53;47.37;94379.44;5027324;28;20506;-75
2022/03/01 05:59:20;;;;;;;4.35;2.95;;;;;;;0.11;48.74;94383.38;5024735;28;20078;-75
2022/03/01 06:01:46;;;;;;;4.45;2.90;;;;;;;0.11;48.84;94357.22;5030529;28;20111;-75
2022/03/01 06:04:11;;;;;;;4.00;3.55;;;;;;;0.42;48.49;94385.50;5024371;28;20038;-73
2022/03/01 06:06:37;;;;;;;8.35;4.28;;;;;;;0.23;48.70;94381.53;5028007;28;20042;-75
2022/03/01 06:09:02;;;;;;;7.22;4.18;;;;;;;0.34;48.82;94388.53;5024502;28;20057;-76
2022/03/01 06:11:27;;;;;;;8.60;4.88;;;;;;;0.23;48.84;94381.53;5024553;28;20053;-76
2022/03/01 06:13:53;;;;;;;8.32;5.40;;;;;;;0.40;48.85;94377.09;5030330;28;20028;-74
2022/03/01 06:16:19;;;;;;;7.32;4.03;;;;;;;0.64;48.55;94394.25;5025739;28;20055;-73
2022/03/01 06:18:45;;;;;;;5.15;3.70;;;;;;;0.75;48.39;94397.84;5027511;28;20040;-74
2022/03/01 06:21:10;;;;;;;5.63;3.58;;;;;;;0.82;48.27;94397.69;5025891;28;20403;-74
2022/03/01 06:23:36;;;;;;;3.35;2.95;;;;;;;0.79;48.57;94394.50;5022728;28;20387;-74
2022/03/01 06:26:02;;;;;;;4.38;3.28;;;;;;;0.46;48.08;94323.03;5030720;28;20889;-74
2022/03/01 06:28:27;;;;;;;7.28;3.78;;;;;;;0.41;49.13;94380.50;5026276;28;20034;-70
2022/03/01 06:30:53;;;;;;;5.30;3.97;;;;;;;0.57;49.90;94391.00;5018510;28;20826;-70
2022/03/01 06:33:18;;;;;;;4.82;3.50;;;;;;;0.65;49.48;94359.19;5030794;28;20376;-73
2022/03/01 06:35:45;;;;;;;6.63;3.97;;;;;;;0.72;49.53;94393.88;5026333;28;20086;-71
2022/03/01 06:38:10;;;;;;;6.53;3.88;;;;;;;0.23;51.13;94373.66;5025667;28;20025;-72
2022/03/01 06:40:36;;;;;;;6.25;3.85;;;;;;;0.72;51.13;94393.09;5030931;28;20560;-73
2022/03/01 06:43:01;;;;;;;6.93;3.80;;;;;;;0.72;50.45;94386.03;5021725;28;20431;-71
2022/03/01 06:45:27;;;;;;;6.38;3.97;;;;;;;0.61;50.65;94367.75;5028195;28;20526;-71
2022/03/01 06:47:53;;;;;;;8.32;3.70;;;;;;;0.29;51.73;94370.13;5024494;28;20041;-72
2022/03/01 06:50:19;;;;;;;4.32;3.58;;;;;;;-0.12;53.18;94398.13;5040250;28;20035;-70
2022/03/01 06:52:44;;;;;;;5.85;3.42;;;;;;;-0.22;52.88;94397.94;5021379;28;20122;-72
2022/03/01 06:55:10;;;;;;;3.42;3.08;;;;;;;-0.74;53.45;94406.78;5034329;28;20040;-70
2022/03/01 06:57:38;;;;;;;5.00;3.25;;;;;;;-0.76;53.82;94380.09;5026828;28;20041;-71
2022/03/01 07:00:04;;;;;;;8.50;3.78;;;;;;;-0.68;53.82;94385.75;5025815;28;20037;-71
2022/03/01 07:02:30;;;;;;;3.10;2.72;;;;;;;-0.54;53.58;94386.31;5025004;28;20846;-72
2022/03/01 07:04:55;;;;;;;5.70;3.95;;;;;;;-0.73;53.99;94397.94;5023215;28;20040;-71
2022/03/01 07:07:22;;;;;;;5.10;3.85;;;;;;;-0.56;54.13;94396.19;5025994;28;20131;-73
2022/03/01 07:09:48;;;;;;;5.60;3.63;;;;;;;-0.77;54.48;94381.09;5035932;28;20670;-73
2022/03/01 07:12:14;;;;;;;4.50;3.90;;;;;;;-0.67;54.63;94403.00;5023653;28;20033;-71
2022/03/01 07:14:41;;;;;;;6.97;4.57;;;;;;;-0.43;54.08;94382.88;5022696;28;20156;-74
2022/03/01 07:17:06;;;;;;;4.25;3.85;;;;;;;-0.92;55.08;94399.06;5031414;28;20116;-71
2022/03/01 07:19:32;;;;;;;5.57;4.00;;;;;;;-1.27;56.57;94392.03;5027728;28;20023;-71
2022/03/01 07:21:57;;;;;;;6.57;4.15;;;;;;;-1.22;56.82;94405.19;5031055;28;20068;-71
2022/03/01 07:24:23;;;;;;;7.55;4.60;;;;;;;-1.24;57.66;94407.22;5023886;28;20041;-72
2022/03/01 07:26:49;;;;;;;5.72;3.72;;;;;;;-1.69;58.17;94413.91;5019821;28;20106;-72
2022/03/01 07:29:14;;;;;;;5.85;3.42;;;;;;;-1.38;58.38;94390.97;5033109;28;20461;-72
2022/03/01 07:31:40;;;;;;;5.97;3.55;;;;;;;-1.27;57.95;94386.00;5021109;28;20029;-69
2022/03/01 07:34:05;;;;;;;3.95;3.55;;;;;;;-1.02;57.76;94395.19;5023673;28;20041;-71
2022/03/01 07:36:31;;;;;;;5.25;4.03;;;;;;;-1.57;57.21;94397.28;5024371;28;20365;-70
2022/03/01 07:38:56;;;;;;;5.85;4.35;;;;;;;-1.74;58.30;94405.97;5036656;28;20037;-71
2022/03/01 07:41:21;;;;;;;5.95;3.60;;;;;;;-1.42;58.67;94409.91;5038815;28;20032;-71
2022/03/01 07:43:47;;;;;;;7.22;4.03;;;;;;;-1.21;58.55;94401.53;5023106;28;20075;-70
2022/03/01 07:46:13;;;;;;;3.67;3.20;;;;;;;-1.24;58.65;94359.44;5024331;28;20834;-73
2022/03/01 07:48:42;;;;;;;3.40;3.10;;;;;;;-1.31;58.25;94336.06;5022010;28;20038;-71
2022/03/01 07:51:09;;;;;;;4.38;3.97;;;;;;;-1.51;58.33;94388.56;5023171;28;20176;-72
2022/03/01 07:53:35;;;;;;;6.20;4.00;;;;;;;-1.83;59.82;94398.47;5026232;28;20052;-70
2022/03/01 07:56:00;;;;;;;5.85;4.28;;;;;;;-1.53;60.12;94392.41;5017339;28;20022;-72
2022/03/01 07:58:26;;;;;;;6.28;3.83;;;;;;;-1.46;60.06;94393.88;5026113;28;20044;-72
2022/03/01 08:00:55;;;;;;;4.47;3.40;;;;;;;-1.10;58.67;94405.97;5021610;28;20075;-70
2022/03/01 08:03:22;;;;;;;6.15;3.63;;;;;;;-1.42;58.49;94376.00;5025565;28;20090;-71
2022/03/01 08:05:48;;;;;;;5.05;4.00;;;;;;;-1.89;59.22;94352.41;5026895;28;20045;-70
2022/03/01 08:08:13;;;;;;;5.72;4.30;;;;;;;-1.60;60.73;94402.13;5016026;28;20107;-71
2022/03/01 08:10:40;;;;;;;9.57;4.43;;;;;;;-1.78;60.18;94394.38;5022597;28;20103;-72
2022/03/01 08:13:05;;;;;;;6.75;4.43;;;;;;;-2.08;59.49;94373.53;5020742;28;20124;-71
2022/03/01 08:15:30;;;;;;;5.25;4.70;;;;;;;-1.93;61.00;94374.72;5022658;28;20208;-71
2022/03/01 08:18:02;;;;;;;8.88;4.05;;;;;;;-1.93;60.93;94413.03;5022904;28;20110;-71
2022/03/01 08:20:28;;;;;;;6.25;4.40;;;;;;;-1.63;61.89;94416.44;5020658;28;20522;-72
2022/03/01 08:22:54;;;;;;;10.32;5.15;;;;;;;-1.85;61.50;94410.91;5021544;28;20029;-71
2022/03/01 08:25:20;;;;;;;10.98;5.30;;;;;;;-1.83;61.97;94403.69;5022873;28;20428;-72
2022/03/01 08:27:46;;;;;;;6.50;4.70;;;;;;;-1.45;61.48;94410.34;5023234;28;20499;-71
2022/03/01 08:30:12;;;;;;;5.30;3.95;;;;;;;-1.75;61.20;94412.22;5019177;28;20111;-73
2022/03/01 08:32:38;;;;;;;6.00;4.03;;;;;;;-1.95;61.99;94396.84;5022919;28;20060;-70
2022/03/01 08:35:04;;;;;;;5.53;4.00;;;;;;;-1.90;61.13;94408.16;5021802;28;20021;-72
2022/03/01 08:37:30;;;;;;;7.22;3.83;;;;;;;-2.11;61.98;94384.41;5022597;28;20037;-71
2022/03/01 08:39:55;;;;;;;5.60;4.90;;;;;;;-1.93;62.60;94397.41;5024716;28;21185;-70
2022/03/01 08:42:20;;;;;;;4.60;4.05;;;;;;;-2.04;62.97;94388.50;5023472;28;20041;-72
2022/03/01 08:44:46;;;;;;;8.23;5.20;;;;;;;-1.64;62.27;94427.88;5024678;28;20064;-71
2022/03/01 08:47:11;;;;;;;7.65;4.45;;;;;;;-1.49;61.16;94423.06;5020793;28;20486;-73
2022/03/01 08:49:37;;;;;;;6.72;4.70;;;;;;;-1.98;61.23;94405.09;5021378;28;20765;-70
2022/03/01 08:52:03;;;;;;;7.18;4.13;;;;;;;-2.00;62.04;94401.91;5021560;28;20075;-70
2022/03/01 08:54:28;;;;;;;5.82;3.97;;;;;;;-1.95;61.44;94395.00;5021487;28;20519;-70
2022/03/01 08:56:54;;;;;;;7.18;4.18;;;;;;;-2.28;61.67;94400.66;5027884;28;20072;-74
2022/03/01 08:59:20;;;;;;;5.50;3.78;;;;;;;-2.19;60.99;94416.78;5039203;28;20583;-73
2022/03/01 09:01:45;;;;;;;6.82;4.38;;;;;;;-2.01;61.80;94400.31;5029261;28;20071;-73
2022/03/01 09:04:11;;;;;;;6.05;4.20;;;;;;;-2.06;61.55;94389.75;5028358;28;20553;-72
2022/03/01 09:06:37;;;;;;;6.00;3.85;;;;;;;-1.95;60.83;94421.06;5025554;28;20128;-70
2022/03/01 09:09:02;;;;;;;5.25;4.20;;;;;;;-1.82;61.59;94414.91;5025050;28;20029;-72
2022/03/01 09:11:28;;;;;;;5.93;5.10;;;;;;;-1.93;61.62;94392.97;5022175;28;20072;-71
2022/03/01 09:13:53;;;;;;;8.15;4.32;;;;;;;-2.03;60.63;94391.91;5027757;28;20025;-70
2022/03/01 09:16:19;;;;;;;9.70;4.50;;;;;;;-1.72;60.37;94422.19;5027124;28;20033;-72
2022/03/01 09:18:44;;;;;;;4.53;3.88;;;;;;;-1.62;60.57;94425.06;5042781;28;20087;-75
2022/03/01 09:21:10;;;;;;;6.15;4.20;;;;;;;-1.59;60.31;94414.16;5028627;28;20660;-70
2022/03/01 09:23:36;;;;;;;8.43;4.63;;;;;;;-2.12;59.80;94362.78;5024920;28;20047;-70
2022/03/01 09:26:02;;;;;;;5.00;4.18;;;;;;;-1.84;59.44;94415.13;5032786;28;20064;-69
2022/03/01 09:28:27;;;;;;;4.80;3.55;;;;;;;-1.85;59.70;94425.78;5021814;28;20120;-70
2022/03/01 09:30:53;;;;;;;5.28;3.40;;;;;;;-1.87;59.14;94407.75;5021746;28;20128;-73
2022/03/01 09:33:19;;;;;;;3.55;3.22;;;;;;;-1.97;58.98;94399.66;5028385;28;20090;-73
2022/03/01 09:35:46;;;;;;;3.50;2.97;;;;;;;-1.96;56.93;94427.31;5025144;28;20522;-73
2022/03/01 09:38:12;;;;;;;3.90;3.00;;;;;;;-2.03;57.94;94424.00;5025190;28;20033;-73
2022/03/01 09:40:37;;;;;;;4.20;3.55;;;;;;;-2.07;57.75;94416.84;5027934;28;20037;-78
2022/03/01 09:43:03;;;;;;;3.58;3.03;;;;;;;-2.49;57.93;94387.28;5026742;28;20424;-77
2022/03/01 09:45:28;;;;;;;3.42;2.58;;;;;;;-2.20;58.31;94433.44;5024498;28;20029;-77
2022/03/01 09:47:54;;;;;;;5.03;2.83;;;;;;;-2.34;58.46;94421.59;5029935;28;20045;-76
2022/03/01 09:50:27;;;;;;;4.53;2.85;;;;;;;-1.95;58.37;94405.44;5025627;28;20029;-76
2022/03/01 09:52:59;;;;;;;5.43;4.05;;;;;;;-1.88;58.96;94421.78;5041674;28;20704;-73
2022/03/01 09:55:26;;;;;;;5.57;4.07;;;;;;;-1.92;58.82;94402.41;5025756;28;20047;-77
2022/03/01 09:57:51;;;;;;;3.65;3.33;;;;;;;-2.19;58.28;94377.69;5024214;28;20045;-76
2022/03/01 10:00:17;;;;;;;3.28;2.28;;;;;;;-2.02;57.35;94425.59;5025607;28;20047;-76
2022/03/01 10:02:43;;;;;;;2.53;2.28;;;;;;;-2.06;57.59;94401.00;5023043;28;20048;-76
2022/03/01 10:05:14;;;;;;;3.35;3.05;;;;;;;-1.85;56.99;94415.34;5033492;28;20528;-77
2022/03/01 10:07:46;;;;;;;4.57;2.75;;;;;;;-1.64;58.06;94411.44;5030214;28;20024;-76
2022/03/01 10:10:16;;;;;;;3.20;2.90;;;;;;;-1.18;57.31;94411.53;5031617;28;20036;-73
2022/03/01 10:13:00;;;;;;;8.75;3.75;;;;;;;-1.38;58.15;94393.59;5027947;28;20040;-76
2022/03/01 10:15:28;;;;;;;5.15;3.10;;;;;;;-0.99;57.41;94413.03;5022002;28;20094;-77
2022/03/01 10:17:54;;;;;;;8.95;4.07;;;;;;;-1.01;57.14;94409.03;5026290;28;20029;-74
2022/03/01 10:20:19;;;;;;;6.50;3.65;;;;;;;-0.89;57.31;94407.25;5019887;28;20082;-76
2022/03/01 10:22:48;;;;;;;4.00;3.63;;;;;;;-1.17;57.23;94396.69;5027514;28;20495;-76
2022/03/01 10:25:16;;;;;;;3.38;2.60;;;;;;;-1.25;56.33;94400.41;5024071;28;20045;-74
2022/03/01 10:27:45;;;;;;;4.32;2.67;;;;;;;-1.04;57.44;94381.59;5025767;28;20068;-77
2022/03/01 10:30:12;;;;;;;4.07;2.88;;;;;;;-0.89;56.83;94393.38;5022912;28;20044;-77
2022/03/01 10:32:38;;;;;;;3.85;2.67;;;;;;;-1.15;55.41;94395.41;5020567;28;20409;-77
2022/03/01 10:35:06;;;;;;;4.13;2.72;;;;;;;-1.08;55.82;94398.72;5030539;28;20021;-75
2022/03/01 10:37:34;;;;;;;3.47;2.70;;;;;;;-1.08;55.67;94390.91;5023231;28;20597;-77
2022/03/01 10:40:22;;;;;;;8.40;3.50;;;;;;;-1.05;56.54;94369.53;5026927;28;20142;-77
2022/03/01 10:43:24;;;;;;;4.90;3.15;;;;;;;-1.10;55.64;94385.09;5027019;28;20029;-77
2022/03/01 10:45:51;;;;;;;3.95;2.92;;;;;;;-1.33;56.26;94379.88;4992157;28;20052;-76
2022/03/01 10:48:26;;;;;;;5.68;4.05;;;;;;;-1.38;55.56;94370.09;5021793;28;20075;-76
2022/03/01 10:50:59;;;;;;;7.00;3.78;;;;;;;-1.50;55.36;94350.22;5038533;28;20120;-77
2022/03/01 10:53:29;;;;;;;3.70;3.17;;;;;;;-1.09;55.72;94363.19;5027125;28;20028;-76
2022/03/01 10:56:00;;;;;;;5.82;4.00;;;;;;;-1.04;56.15;94352.06;5027923;28;20020;-75
2022/03/01 10:58:25;;;;;;;6.78;4.15;;;;;;;-1.07;56.84;94363.75;5027406;28;20413;-77
2022/03/01 11:00:52;;;;;;;4.88;3.80;;;;;;;-0.99;57.27;94373.88;5026107;28;20135;-76
2022/03/01 11:03:19;;;;;;;7.53;4.50;;;;;;;-1.01;56.62;94322.88;5025243;28;20044;-76
2022/03/01 11:05:45;;;;;;;5.10;3.88;;;;;;;-1.20;55.43;94332.66;5026849;28;20036;-76
2022/03/01 11:08:12;;;;;;;4.82;3.17;;;;;;;-1.26;54.60;94359.66;5019210;28;20766;-74
2022/03/01 11:10:39;;;;;;;6.25;4.28;;;;;;;-1.37;55.72;94352.63;5028527;28;20052;-75
2022/03/01 11:13:06;;;;;;;4.80;3.40;;;;;;;-1.11;56.80;94370.44;5023631;28;20156;-76
2022/03/01 11:15:38;;;;;;;7.43;4.18;;;;;;;-1.19;55.10;94352.53;5025404;28;20389;-78
2022/03/01 11:18:34;;;;;;;7.78;5.45;;;;;;;-1.21;55.54;94354.56;5037166;28;20702;-77
2022/03/01 11:21:05;;;;;;;3.72;3.35;;;;;;;-1.03;55.83;94362.28;5022267;28;20078;-76
2022/03/01 11:23:31;;;;;;;6.03;3.63;;;;;;;-0.98;55.67;94338.09;5022431;28;21070;-76
2022/03/01 11:26:11;;;;;;;6.38;4.70;;;;;;;-0.93;55.48;94340.03;5031217;28;20121;-77
2022/03/01 11:28:45;;;;;;;4.53;3.40;;;;;;;-1.11;55.67;94349.56;5020536;28;20525;-77
2022/03/01 11:31:21;;;;;;;7.13;4.07;;;;;;;-0.84;56.77;94342.06;5018628;28;20040;-77
2022/03/01 11:34:05;;;;;;;5.45;4.90;;;;;;;-0.90;55.82;94335.13;5026478;28;20052;-72
2022/03/01 11:36:32;;;;;;;6.68;4.72;;;;;;;-0.85;55.72;94337.06;5026720;28;20095;-77